Terminal Aerodrome Forecast
Issued by NWS

Home | Current Version | Previous Version | Graphics & Text | Print | Product List | Glossary On
Versions: 1 2 3 4 5 6 7 8 9 10 11 12 13 14 15 16 17 18 19 20
000
FTUS43 KTOP 201120
TAFFOE
TAF
KFOE 201120Z 2012/2112 22011G20KT 6SM BR OVC008
     FM201500 26012G22KT P6SM BKN010
     FM201900 26013G21KT P6SM BKN020
     FM202200 27014G23KT P6SM BKN040
     FM210100 27011G22KT P6SM SCT070
     FM210400 27007KT P6SM SCT040=

USA.gov is the U.S. government's official web portal to all federal, state and local government web resources and services.